createdAt,value
2022-09-28T00:00:06.471Z,10.46
2022-09-28T00:02:43.919Z,10.40
2022-09-28T00:05:15.695Z,10.39
2022-09-28T00:07:47.297Z,10.39
2022-09-28T00:10:19.435Z,10.38
2022-09-28T00:12:55.182Z,10.41
2022-09-28T00:15:27.210Z,10.38
2022-09-28T00:17:58.843Z,10.39
2022-09-28T00:20:30.474Z,10.38
2022-09-28T00:23:02.553Z,10.40
2022-09-28T00:25:34.116Z,10.32
2022-09-28T00:28:07.387Z,10.27
2022-09-28T00:30:40.004Z,10.23
2022-09-28T00:33:11.632Z,10.22
2022-09-28T00:35:43.571Z,10.21
2022-09-28T00:38:16.766Z,10.19
2022-09-28T00:40:48.589Z,10.12
2022-09-28T00:43:21.862Z,10.12
2022-09-28T00:46:04.394Z,10.18
2022-09-28T00:48:40.580Z,10.16
2022-09-28T00:51:13.146Z,10.18
2022-09-28T00:53:45.489Z,10.14
2022-09-28T00:56:21.606Z,10.09
2022-09-28T00:58:54.659Z,10.07
2022-09-28T01:01:27.792Z,10.03
2022-09-28T01:04:02.678Z,10.01
2022-09-28T01:06:36.435Z,9.97
2022-09-28T01:09:10.393Z,9.93
2022-09-28T01:11:43.113Z,9.91
2022-09-28T01:14:16.499Z,9.93
2022-09-28T01:17:12.459Z,9.99
2022-09-28T01:20:22.931Z,9.95
2022-09-28T01:23:19.065Z,9.97
2022-09-28T01:26:18.630Z,9.92
2022-09-28T01:28:58.105Z,9.92
2022-09-28T01:31:32.874Z,9.91
2022-09-28T01:34:13.650Z,9.84
2022-09-28T01:36:51.962Z,9.90
2022-09-28T01:39:33.223Z,9.88
2022-09-28T01:42:16.824Z,9.82
2022-09-28T01:44:54.603Z,9.76
2022-09-28T01:47:29.145Z,9.78
2022-09-28T01:50:16.179Z,9.75
2022-09-28T01:53:00.957Z,9.69
2022-09-28T01:55:42.285Z,9.70
2022-09-28T01:58:22.719Z,9.74
2022-09-28T02:01:09.973Z,9.74
2022-09-28T02:03:56.446Z,9.71
2022-09-28T02:06:41.196Z,9.66
2022-09-28T02:09:20.933Z,9.68
2022-09-28T02:12:01.543Z,9.65
2022-09-28T02:14:36.421Z,9.62
2022-09-28T02:17:10.077Z,9.64
2022-09-28T02:19:43.068Z,9.65
2022-09-28T02:22:31.925Z,9.62
2022-09-28T02:25:29.263Z,9.66
2022-09-28T02:28:06.990Z,9.69
2022-09-28T02:30:42.546Z,9.64
2022-09-28T02:33:21.889Z,9.58
2022-09-28T02:35:53.515Z,9.58
2022-09-28T02:38:27.480Z,9.55
2022-09-28T02:41:29.802Z,9.52
2022-09-28T02:44:19.505Z,9.50
2022-09-28T02:47:33.147Z,9.47
2022-09-28T02:50:21.602Z,9.46
2022-09-28T02:53:00.105Z,9.43
2022-09-28T02:55:59.103Z,9.42
2022-09-28T02:59:04.273Z,9.39
2022-09-28T03:02:01.635Z,9.39
2022-09-28T03:04:43.877Z,9.37
2022-09-28T03:07:31.062Z,9.34
2022-09-28T03:10:24.164Z,9.29
2022-09-28T03:12:57.190Z,9.23
2022-09-28T03:15:34.742Z,9.19
2022-09-28T03:18:09.311Z,9.10
2022-09-28T03:20:40.969Z,9.07
2022-09-28T03:23:24.488Z,9.08
2022-09-28T03:25:57.697Z,9.06
2022-09-28T03:28:32.022Z,9.11
2022-09-28T03:31:06.003Z,9.07
2022-09-28T03:33:37.798Z,9.12
2022-09-28T03:36:09.766Z,9.12
2022-09-28T03:38:43.751Z,9.15
2022-09-28T03:41:16.000Z,9.13
2022-09-28T03:43:48.620Z,9.15
2022-09-28T03:46:20.911Z,9.16
2022-09-28T03:48:57.298Z,9.17
2022-09-28T03:51:29.329Z,9.13
2022-09-28T03:54:00.957Z,9.11
2022-09-28T03:56:33.092Z,8.97
2022-09-28T03:59:05.184Z,8.90
2022-09-28T04:01:36.953Z,8.88
2022-09-28T04:04:12.860Z,8.94
2022-09-28T04:06:44.809Z,8.90
2022-09-28T04:09:17.694Z,8.84
2022-09-28T04:12:03.401Z,8.83
2022-09-28T04:14:36.620Z,8.82
2022-09-28T04:17:08.947Z,8.79
2022-09-28T04:19:44.030Z,8.74
2022-09-28T04:22:26.656Z,8.74
2022-09-28T04:24:58.543Z,8.72
2022-09-28T04:28:02.349Z,8.72
2022-09-28T04:30:35.049Z,8.66
2022-09-28T04:33:06.721Z,8.66
2022-09-28T04:35:38.322Z,8.63
2022-09-28T04:38:09.933Z,8.68
2022-09-28T04:40:41.708Z,8.66
2022-09-28T04:43:13.383Z,8.62
2022-09-28T04:45:45.134Z,8.63
2022-09-28T04:48:17.462Z,8.62
2022-09-28T04:51:07.830Z,8.61
2022-09-28T04:53:42.330Z,8.61
2022-09-28T04:56:16.022Z,8.59
2022-09-28T04:58:52.437Z,8.57
2022-09-28T05:01:24.703Z,8.59
2022-09-28T05:04:05.715Z,8.60
2022-09-28T05:06:48.233Z,8.61
2022-09-28T05:09:19.999Z,8.63
2022-09-28T05:11:53.066Z,8.62
2022-09-28T05:14:26.890Z,8.69
2022-09-28T05:16:58.631Z,8.72
2022-09-28T05:19:32.537Z,8.75
2022-09-28T05:22:11.424Z,8.84
2022-09-28T05:24:48.253Z,8.88
2022-09-28T05:27:20.532Z,8.93
2022-09-28T05:30:00.957Z,8.88
2022-09-28T05:32:35.325Z,8.90
2022-09-28T05:35:22.626Z,8.86
2022-09-28T05:37:54.969Z,8.89
2022-09-28T05:40:26.825Z,8.92
2022-09-28T05:43:02.414Z,8.92
2022-09-28T05:45:37.280Z,8.94
2022-09-28T05:48:09.317Z,8.98
2022-09-28T05:50:40.999Z,9.01
2022-09-28T05:53:12.627Z,9.03
2022-09-28T05:55:44.362Z,9.03
2022-09-28T05:58:16.734Z,9.06
2022-09-28T06:00:54.995Z,9.10
2022-09-28T06:03:27.117Z,9.15
2022-09-28T06:06:01.978Z,9.13
2022-09-28T06:08:35.226Z,9.13
2022-09-28T06:11:27.898Z,9.21
2022-09-28T06:14:02.005Z,9.10
2022-09-28T06:16:38.243Z,9.11
2022-09-28T06:19:13.873Z,9.12
2022-09-28T06:22:04.190Z,9.13
2022-09-28T06:24:39.276Z,9.08
2022-09-28T06:27:10.896Z,8.97
2022-09-28T06:29:42.543Z,8.94
2022-09-28T06:32:14.364Z,8.99
2022-09-28T06:34:50.693Z,8.99
2022-09-28T06:37:26.164Z,9.00
2022-09-28T06:39:59.235Z,9.01
2022-09-28T06:42:30.965Z,9.04
2022-09-28T06:45:25.825Z,9.10
2022-09-28T06:48:20.437Z,9.10
2022-09-28T06:50:52.201Z,9.15
2022-09-28T06:53:37.713Z,9.18
2022-09-28T06:56:14.909Z,9.20
2022-09-28T06:58:47.297Z,9.23
2022-09-28T07:01:19.347Z,9.22
2022-09-28T07:04:11.236Z,9.20
2022-09-28T07:07:04.774Z,9.28
2022-09-28T07:09:55.787Z,9.34
2022-09-28T07:13:05.529Z,9.40
2022-09-28T07:15:47.943Z,9.38
2022-09-28T07:18:20.257Z,9.42
2022-09-28T07:20:54.511Z,9.41
2022-09-28T07:23:34.112Z,9.41
2022-09-28T07:26:24.342Z,9.44
2022-09-28T07:29:09.735Z,9.44
2022-09-28T07:31:55.348Z,9.48
2022-09-28T07:35:08.099Z,9.50
2022-09-28T07:38:02.476Z,9.49
2022-09-28T07:40:55.114Z,9.47
2022-09-28T07:43:26.818Z,9.51
2022-09-28T07:45:59.027Z,9.45
2022-09-28T07:48:36.671Z,9.45
2022-09-28T07:51:40.766Z,9.46
2022-09-28T07:54:31.205Z,9.49
2022-09-28T07:57:23.162Z,9.52
2022-09-28T08:00:31.952Z,9.59
2022-09-28T08:03:06.126Z,9.66
2022-09-28T08:05:39.099Z,9.70
2022-09-28T08:08:10.743Z,9.69
2022-09-28T08:10:47.329Z,9.66
2022-09-28T08:13:48.810Z,9.64
2022-09-28T08:16:30.340Z,9.65
2022-09-28T08:19:15.173Z,9.71
2022-09-28T08:21:46.974Z,9.78
2022-09-28T08:24:19.254Z,9.82
2022-09-28T08:26:51.851Z,9.83
2022-09-28T08:29:24.369Z,9.90
2022-09-28T08:31:59.550Z,9.96
2022-09-28T08:34:41.304Z,10.01
2022-09-28T08:37:28.809Z,10.04
2022-09-28T08:40:24.932Z,10.06
2022-09-28T08:44:02.799Z,10.10
2022-09-28T08:47:01.422Z,10.17
2022-09-28T08:50:02.795Z,10.20
2022-09-28T08:52:55.658Z,10.24
2022-09-28T08:55:38.076Z,10.26
2022-09-28T08:58:13.509Z,10.26
2022-09-28T09:00:52.844Z,10.11
2022-09-28T09:03:37.757Z,10.13
2022-09-28T09:06:42.254Z,10.19
2022-09-28T09:10:07.796Z,10.26
2022-09-28T09:12:59.930Z,10.27
2022-09-28T09:15:35.789Z,10.24
2022-09-28T09:18:30.054Z,10.23
2022-09-28T09:21:22.956Z,10.27
2022-09-28T09:23:56.846Z,10.30
2022-09-28T09:26:39.492Z,10.38
2022-09-28T09:29:36.597Z,10.51
2022-09-28T09:32:17.860Z,10.53
2022-09-28T09:35:24.879Z,10.55
2022-09-28T09:39:01.178Z,10.62
2022-09-28T09:42:05.814Z,10.68
2022-09-28T09:45:30.229Z,10.67
2022-09-28T09:48:29.380Z,10.63
2022-09-28T09:51:13.548Z,10.64
2022-09-28T09:53:53.325Z,10.72
2022-09-28T09:56:49.947Z,10.71
2022-09-28T09:59:37.743Z,10.78
2022-09-28T10:02:26.596Z,10.72
2022-09-28T10:05:13.489Z,10.71
2022-09-28T10:08:00.326Z,10.75
2022-09-28T10:10:37.967Z,10.79
2022-09-28T10:13:13.555Z,10.88
2022-09-28T10:15:48.071Z,10.85
2022-09-28T10:18:40.490Z,10.91
2022-09-28T10:21:37.516Z,10.98
2022-09-28T10:24:30.080Z,11.05
2022-09-28T10:27:06.601Z,11.10
2022-09-28T10:29:55.283Z,11.19
2022-09-28T10:32:40.810Z,11.26
2022-09-28T10:35:18.017Z,11.32
2022-09-28T10:38:14.847Z,11.37
2022-09-28T10:41:11.705Z,11.35
2022-09-28T10:44:06.489Z,11.34
2022-09-28T10:47:00.601Z,11.23
2022-09-28T10:49:46.762Z,11.20
2022-09-28T10:52:33.878Z,11.20
2022-09-28T10:55:20.806Z,11.26
2022-09-28T10:57:53.154Z,11.29
2022-09-28T11:00:33.494Z,11.31
2022-09-28T11:03:27.234Z,11.31
2022-09-28T11:06:05.265Z,11.26
2022-09-28T11:08:44.610Z,11.29
2022-09-28T11:11:24.871Z,11.36
2022-09-28T11:14:04.645Z,11.42
2022-09-28T11:16:39.975Z,11.46
2022-09-28T11:19:31.862Z,11.55
2022-09-28T11:22:29.907Z,11.62
2022-09-28T11:25:32.249Z,11.71
2022-09-28T11:28:05.617Z,11.81
2022-09-28T11:30:53.049Z,11.91
2022-09-28T11:34:14.868Z,11.93
2022-09-28T11:37:14.894Z,12.04
2022-09-28T11:40:20.288Z,12.15
2022-09-28T11:43:23.445Z,12.13
2022-09-28T11:46:03.838Z,12.17
2022-09-28T11:48:47.343Z,12.16
2022-09-28T11:51:24.383Z,12.16
2022-09-28T11:54:06.570Z,12.25
2022-09-28T11:56:41.685Z,12.40
2022-09-28T11:59:28.389Z,12.53
2022-09-28T12:02:17.371Z,12.68
2022-09-28T12:05:15.818Z,12.81
2022-09-28T12:07:56.111Z,13.17
2022-09-28T12:11:26.337Z,13.71
2022-09-28T12:14:39.846Z,14.45
2022-09-28T12:17:42.689Z,15.04
2022-09-28T12:20:22.843Z,15.48
2022-09-28T12:23:18.794Z,15.85
2022-09-28T12:26:02.119Z,16.08
2022-09-28T12:28:39.955Z,16.31
2022-09-28T12:31:20.507Z,16.37
2022-09-28T12:33:52.317Z,16.24
2022-09-28T12:36:36.172Z,16.09
2022-09-28T12:39:40.674Z,15.91
2022-09-28T12:42:55.088Z,15.67
2022-09-28T12:46:10.832Z,15.57
2022-09-28T12:49:21.672Z,15.67
2022-09-28T12:51:54.015Z,15.75
2022-09-28T12:54:56.903Z,15.76
2022-09-28T12:57:58.392Z,15.51
2022-09-28T13:00:39.995Z,15.95
2022-09-28T13:03:19.241Z,16.20
2022-09-28T13:06:21.102Z,16.15
2022-09-28T13:09:21.856Z,16.24
2022-09-28T13:12:18.115Z,16.25
2022-09-28T13:15:06.459Z,16.11
2022-09-28T13:18:03.781Z,15.98
2022-09-28T13:20:53.433Z,15.85
2022-09-28T13:23:31.068Z,15.61
2022-09-28T13:26:29.323Z,15.39
2022-09-28T13:29:14.190Z,15.10
2022-09-28T13:31:48.968Z,14.84
2022-09-28T13:34:30.633Z,14.49
2022-09-28T13:37:17.348Z,14.19
2022-09-28T13:39:56.355Z,14.09
2022-09-28T13:42:55.135Z,14.08
2022-09-28T13:45:34.604Z,14.30
2022-09-28T13:48:37.418Z,14.59
2022-09-28T13:51:24.671Z,14.71
2022-09-28T13:54:16.721Z,14.80
2022-09-28T13:56:59.357Z,14.88
2022-09-28T13:59:34.386Z,14.99
2022-09-28T14:02:30.377Z,15.11
2022-09-28T14:05:05.479Z,15.08
2022-09-28T14:07:37.026Z,15.11
2022-09-28T14:10:40.510Z,15.20
2022-09-28T14:13:34.941Z,15.18
2022-09-28T14:16:21.039Z,15.22
2022-09-28T14:19:03.631Z,15.15
2022-09-28T14:21:56.557Z,15.18
2022-09-28T14:24:50.176Z,15.21
2022-09-28T14:27:51.328Z,15.21
2022-09-28T14:30:26.559Z,15.10
2022-09-28T14:32:59.761Z,15.05
2022-09-28T14:35:39.258Z,15.09
2022-09-28T14:38:52.089Z,15.07
2022-09-28T14:41:44.036Z,15.03
2022-09-28T14:44:18.840Z,14.94
2022-09-28T14:47:39.919Z,14.89
2022-09-28T14:50:18.750Z,14.81
2022-09-28T14:53:12.147Z,14.74
2022-09-28T14:56:08.457Z,14.61
2022-09-28T14:58:43.829Z,14.39
2022-09-28T15:01:20.422Z,14.34
2022-09-28T15:04:02.079Z,14.38
2022-09-28T15:06:51.171Z,14.37
2022-09-28T15:09:34.237Z,14.37
2022-09-28T15:12:19.818Z,14.41
2022-09-28T15:14:58.823Z,14.40
2022-09-28T15:17:39.170Z,14.38
2022-09-28T15:20:31.030Z,14.38
2022-09-28T15:23:02.688Z,14.37
2022-09-28T15:25:35.885Z,14.39
2022-09-28T15:28:19.342Z,14.29
2022-09-28T15:30:51.986Z,14.21
2022-09-28T15:33:53.558Z,14.17
2022-09-28T15:36:48.005Z,14.08
2022-09-28T15:39:27.637Z,14.05
2022-09-28T15:42:00.569Z,13.98
2022-09-28T15:44:37.180Z,13.94
2022-09-28T15:47:25.923Z,13.89
2022-09-28T15:50:03.016Z,13.87
2022-09-28T15:52:46.939Z,13.85
2022-09-28T15:55:28.526Z,13.84
2022-09-28T15:58:19.242Z,13.79
2022-09-28T16:01:12.126Z,13.78
2022-09-28T16:03:43.786Z,13.72
2022-09-28T16:06:15.435Z,13.68
2022-09-28T16:08:50.629Z,13.66
2022-09-28T16:11:34.554Z,13.58
2022-09-28T16:14:18.766Z,13.49
2022-09-28T16:16:52.250Z,13.41
2022-09-28T16:19:36.174Z,13.39
2022-09-28T16:22:16.323Z,13.31
2022-09-28T16:25:00.018Z,13.26
2022-09-28T16:27:45.714Z,13.19
2022-09-28T16:30:24.231Z,13.13
2022-09-28T16:33:25.676Z,13.09
2022-09-28T16:36:03.239Z,13.03
2022-09-28T16:38:37.630Z,12.96
2022-09-28T16:41:11.536Z,12.89
2022-09-28T16:43:43.122Z,12.88
2022-09-28T16:46:17.707Z,12.81
2022-09-28T16:48:50.329Z,12.73
2022-09-28T16:51:27.270Z,12.66
2022-09-28T16:54:44.040Z,12.61
2022-09-28T16:57:16.278Z,12.54
2022-09-28T16:59:47.881Z,12.53
2022-09-28T17:05:20.160Z,12.40
2022-09-28T17:08:02.999Z,12.30
2022-09-28T17:11:13.088Z,12.25
2022-09-28T17:13:42.244Z,12.16
2022-09-28T17:16:28.229Z,12.01
2022-09-28T17:19:28.655Z,11.81
2022-09-28T17:22:01.450Z,11.74
2022-09-28T17:24:33.114Z,11.66
2022-09-28T17:27:06.847Z,11.67
2022-09-28T17:29:38.494Z,11.65
2022-09-28T17:32:18.642Z,11.64
2022-09-28T17:35:00.872Z,11.59
2022-09-28T17:37:40.606Z,11.49
2022-09-28T17:40:21.021Z,11.45
2022-09-28T17:42:55.171Z,11.42
2022-09-28T17:45:28.691Z,11.37
2022-09-28T17:48:00.767Z,11.35
2022-09-28T17:50:34.919Z,11.32
2022-09-28T17:53:06.560Z,11.32
2022-09-28T17:55:39.305Z,11.27
2022-09-28T17:58:23.189Z,11.24
2022-09-28T18:00:54.969Z,11.21
2022-09-28T18:03:26.914Z,11.16
2022-09-28T18:06:06.165Z,11.12
2022-09-28T18:08:37.946Z,11.07
2022-09-28T18:11:11.081Z,11.01
2022-09-28T18:13:43.573Z,10.98
2022-09-28T18:16:15.830Z,10.97
2022-09-28T18:18:47.768Z,10.93
2022-09-28T18:21:19.951Z,10.90
2022-09-28T18:24:17.102Z,10.96
2022-09-28T18:26:48.879Z,11.09
2022-09-28T18:29:20.511Z,11.21
2022-09-28T18:31:52.385Z,11.32
2022-09-28T18:34:24.199Z,11.41
2022-09-28T18:36:55.958Z,11.47
2022-09-28T18:39:27.607Z,11.53
2022-09-28T18:41:59.275Z,11.56
2022-09-28T18:44:32.556Z,11.56
2022-09-28T18:47:04.783Z,11.56
2022-09-28T18:49:36.421Z,11.61
2022-09-28T18:52:08.133Z,11.61
2022-09-28T18:54:40.259Z,11.65
2022-09-28T18:57:12.155Z,11.63
2022-09-28T18:59:44.762Z,11.60
2022-09-28T19:02:16.570Z,11.57
2022-09-28T19:04:48.358Z,11.55
2022-09-28T19:07:21.238Z,11.50
2022-09-28T19:09:53.315Z,11.42
2022-09-28T19:12:25.152Z,11.33
2022-09-28T19:14:56.947Z,11.27
2022-09-28T19:17:29.768Z,11.21
2022-09-28T19:20:01.467Z,11.16
2022-09-28T19:22:33.216Z,11.07
2022-09-28T19:25:05.168Z,10.95
2022-09-28T19:27:36.844Z,10.85
2022-09-28T19:30:08.986Z,10.76
2022-09-28T19:32:42.475Z,10.70
2022-09-28T19:35:14.195Z,10.69
2022-09-28T19:37:48.814Z,10.66
2022-09-28T19:40:20.606Z,10.63
2022-09-28T19:42:52.364Z,10.61
2022-09-28T19:45:23.981Z,10.59
2022-09-28T19:47:59.976Z,10.39
2022-09-28T19:50:31.846Z,10.26
2022-09-28T19:53:06.674Z,10.14
2022-09-28T19:55:39.015Z,10.15
2022-09-28T19:58:10.659Z,9.96
2022-09-28T20:00:42.248Z,9.88
2022-09-28T20:03:14.199Z,9.82
2022-09-28T20:05:49.262Z,9.81
2022-09-28T20:08:21.948Z,9.81
2022-09-28T20:10:54.936Z,9.80
2022-09-28T20:13:32.511Z,9.77
2022-09-28T20:16:11.404Z,9.73
2022-09-28T20:18:49.821Z,9.69
2022-09-28T20:21:26.465Z,9.64
2022-09-28T20:23:58.918Z,9.61
2022-09-28T20:26:30.736Z,9.58
2022-09-28T20:29:02.337Z,9.54
2022-09-28T20:31:38.717Z,9.49
2022-09-28T20:34:12.108Z,9.43
2022-09-28T20:36:44.708Z,9.41
2022-09-28T20:39:16.435Z,9.38
2022-09-28T20:41:49.045Z,9.37
2022-09-28T20:44:21.069Z,9.36
2022-09-28T20:46:52.760Z,9.33
2022-09-28T20:49:24.538Z,9.33
2022-09-28T20:51:56.157Z,9.30
2022-09-28T20:54:28.022Z,9.29
2022-09-28T20:56:59.618Z,9.29
2022-09-28T20:59:32.253Z,9.31
2022-09-28T21:02:03.879Z,9.31
2022-09-28T21:04:35.772Z,9.32
2022-09-28T21:07:10.615Z,9.29
2022-09-28T21:09:42.247Z,9.23
2022-09-28T21:12:15.332Z,9.17
2022-09-28T21:14:47.068Z,9.13
2022-09-28T21:17:19.228Z,9.02
2022-09-28T21:19:50.833Z,9.01
2022-09-28T21:22:22.424Z,9.00
2022-09-28T21:24:56.646Z,8.99
2022-09-28T21:27:28.539Z,8.98
2022-09-28T21:30:01.005Z,8.95
2022-09-28T21:32:35.170Z,8.91
2022-09-28T21:35:11.538Z,8.91
2022-09-28T21:37:43.133Z,8.89
2022-09-28T21:40:14.830Z,8.86
2022-09-28T21:42:46.544Z,8.84
2022-09-28T21:45:18.523Z,8.79
2022-09-28T21:47:56.758Z,8.72
2022-09-28T21:50:28.418Z,8.69
2022-09-28T21:53:01.774Z,8.61
2022-09-28T21:55:33.380Z,8.56
2022-09-28T21:58:04.971Z,8.54
2022-09-28T22:00:36.855Z,8.49
2022-09-28T22:03:08.450Z,8.46
2022-09-28T22:05:40.099Z,8.41
2022-09-28T22:08:12.258Z,8.39
2022-09-28T22:10:43.901Z,8.34
2022-09-28T22:13:15.533Z,8.26
2022-09-28T22:15:52.961Z,8.26
2022-09-28T22:18:26.140Z,8.18
2022-09-28T22:21:12.572Z,8.14
2022-09-28T22:23:44.732Z,8.11
2022-09-28T22:26:26.452Z,8.13
2022-09-28T22:29:07.128Z,8.08
2022-09-28T22:31:40.744Z,7.97
2022-09-28T22:34:12.421Z,7.91
2022-09-28T22:36:44.070Z,7.92
2022-09-28T22:39:15.677Z,7.94
2022-09-28T22:41:48.337Z,7.94
2022-09-28T22:44:20.340Z,7.96
2022-09-28T22:46:55.936Z,7.94
2022-09-28T22:49:27.804Z,7.97
2022-09-28T22:51:59.462Z,7.95
2022-09-28T22:54:31.082Z,7.92
2022-09-28T22:57:02.705Z,7.91
2022-09-28T22:59:34.299Z,7.94
2022-09-28T23:02:06.634Z,8.01
2022-09-28T23:04:38.247Z,8.08
2022-09-28T23:07:09.927Z,8.08
2022-09-28T23:09:41.513Z,8.11
2022-09-28T23:12:13.140Z,8.17
2022-09-28T23:14:44.730Z,8.16
2022-09-28T23:17:16.346Z,8.19
2022-09-28T23:19:49.017Z,8.18
2022-09-28T23:22:20.673Z,8.15
2022-09-28T23:24:52.458Z,8.14
2022-09-28T23:27:24.141Z,8.13
2022-09-28T23:29:56.042Z,8.12
2022-09-28T23:32:33.594Z,8.17
2022-09-28T23:35:05.691Z,8.23
2022-09-28T23:37:37.738Z,8.20
2022-09-28T23:40:09.654Z,8.20
2022-09-28T23:42:41.573Z,8.23
2022-09-28T23:45:13.215Z,8.17
2022-09-28T23:47:44.841Z,8.13
2022-09-28T23:50:17.498Z,8.10
2022-09-28T23:52:49.850Z,8.10
2022-09-28T23:55:21.440Z,8.15
2022-09-28T23:57:55.608Z,8.16
